EPSC/SZZ METAR and TAF weather

Enter ICAO airport designator
Station Type Date Time Source
EPSC METAR 2018/07/21 11:30 UTC NOAA

EPSC 211130Z 36011KT 290V030 CAVOK 24/10 Q1012


Station Type Date Time Source
EPSC Decoded METAR 2018/07/21 11:30 UTC NOAA

Szczecin, Poland (EPSC) 53-24N 014-37E 3M
Jul 21, 2018 - 07:30 AM EDT / 2018.07.21 1130 UTC
Wind: from the N (360 degrees) at 13 MPH (11 KT) (direction variable):0
Visibility: greater than 7 mile(s):0
Temperature: 75 F (24 C)
Dew Point: 50 F (10 C)
Relative Humidity: 41%
Pressure (altimeter): 29.88 in. Hg (1012 hPa)
ob: EPSC 211130Z 36011KT 290V030 CAVOK 24/10 Q1012
cycle: 11

Station Type Date Time Source
EPSC TAF 2018/07/21 12:33 UTC NOAA

TAF EPSC 211130Z 2112/2212 35010KT CAVOK
BECMG 2118/2121 VRB02KT PROB40 2200/2204 3000 BR


Example: see airport list